createdAt,value
2018-08-22T00:00:12.783Z,8.18
2018-08-22T00:02:40.975Z,8.23
2018-08-22T00:05:09.177Z,8.33
2018-08-22T00:07:37.374Z,7.87
2018-08-22T00:10:06.061Z,9.33
2018-08-22T00:12:34.312Z,8.50
2018-08-22T00:15:02.510Z,8.03
2018-08-22T00:17:30.738Z,8.50
2018-08-22T00:19:58.915Z,8.48
2018-08-22T00:22:27.160Z,8.65
2018-08-22T00:24:55.355Z,8.48
2018-08-22T00:27:23.535Z,8.75
2018-08-22T00:29:51.724Z,7.72
2018-08-22T00:32:19.930Z,8.23
2018-08-22T00:34:48.115Z,8.05
2018-08-22T00:37:16.319Z,7.53
2018-08-22T00:39:44.525Z,8.13
2018-08-22T00:42:12.751Z,7.60
2018-08-22T00:44:40.977Z,8.00
2018-08-22T00:47:09.281Z,8.10
2018-08-22T00:49:37.490Z,8.15
2018-08-22T00:52:05.695Z,7.72
2018-08-22T00:54:33.934Z,7.60
2018-08-22T00:57:02.137Z,7.90
2018-08-22T00:59:30.338Z,7.50
2018-08-22T01:01:58.561Z,9.20
2018-08-22T01:04:26.775Z,8.18
2018-08-22T01:06:55.051Z,7.22
2018-08-22T01:09:23.239Z,8.80
2018-08-22T01:11:51.422Z,8.10
2018-08-22T01:14:19.787Z,7.80
2018-08-22T01:16:47.991Z,7.90
2018-08-22T01:19:16.260Z,8.18
2018-08-22T01:21:44.463Z,11.40
2018-08-22T01:24:12.675Z,8.08
2018-08-22T01:26:40.884Z,8.20
2018-08-22T01:29:09.072Z,8.58
2018-08-22T01:31:37.271Z,8.38
2018-08-22T01:34:05.471Z,8.53
2018-08-22T01:36:33.686Z,8.30
2018-08-22T01:39:01.895Z,7.70
2018-08-22T01:41:30.231Z,7.50
2018-08-22T01:43:58.425Z,8.78
2018-08-22T01:46:26.626Z,7.78
2018-08-22T01:48:54.835Z,9.00
2018-08-22T01:51:23.065Z,9.35
2018-08-22T01:53:51.250Z,8.58
2018-08-22T01:56:19.439Z,7.50
2018-08-22T01:58:47.700Z,8.65
2018-08-22T02:01:15.832Z,8.55
2018-08-22T02:03:44.039Z,8.05
2018-08-22T02:06:12.210Z,7.70
2018-08-22T02:08:40.411Z,7.92
2018-08-22T02:11:08.627Z,8.40
2018-08-22T02:13:36.823Z,8.35
2018-08-22T02:16:05.124Z,8.68
2018-08-22T02:18:33.317Z,9.05
2018-08-22T02:21:01.507Z,7.95
2018-08-22T02:23:29.720Z,7.60
2018-08-22T02:25:57.945Z,8.25
2018-08-22T02:28:26.143Z,8.20
2018-08-22T02:30:54.377Z,9.08
2018-08-22T02:33:22.595Z,8.88
2018-08-22T02:35:50.809Z,8.80
2018-08-22T02:38:24.508Z,8.53
2018-08-22T02:40:54.914Z,8.73
2018-08-22T02:43:23.195Z,8.30
2018-08-22T02:45:51.478Z,7.22
2018-08-22T02:48:19.670Z,8.28
2018-08-22T02:50:47.905Z,7.95
2018-08-22T02:53:16.083Z,8.00
2018-08-22T02:55:44.283Z,8.55
2018-08-22T02:58:12.514Z,7.95
2018-08-22T03:00:40.823Z,7.97
2018-08-22T03:03:09.018Z,8.55
2018-08-22T03:05:37.240Z,7.83
2018-08-22T03:08:05.549Z,6.87
2018-08-22T03:10:40.520Z,8.78
2018-08-22T03:13:08.708Z,8.83
2018-08-22T03:15:36.893Z,8.50
2018-08-22T03:18:05.083Z,8.35
2018-08-22T03:20:33.284Z,8.48
2018-08-22T03:23:01.476Z,8.53
2018-08-22T03:25:29.703Z,8.73
2018-08-22T03:27:57.910Z,9.38
2018-08-22T03:30:26.156Z,8.63
2018-08-22T03:32:54.348Z,9.10
2018-08-22T03:35:22.558Z,8.80
2018-08-22T03:37:50.776Z,9.45
2018-08-22T03:40:18.999Z,9.98
2018-08-22T03:42:47.198Z,9.60
2018-08-22T03:45:15.395Z,8.03
2018-08-22T03:47:43.626Z,8.25
2018-08-22T03:50:11.846Z,8.20
2018-08-22T03:52:40.042Z,8.13
2018-08-22T03:55:08.292Z,8.83
2018-08-22T03:57:36.591Z,8.28
2018-08-22T04:00:04.999Z,7.42
2018-08-22T04:02:33.196Z,8.45
2018-08-22T04:05:01.390Z,8.18
2018-08-22T04:07:29.665Z,10.05
2018-08-22T04:09:57.862Z,8.33
2018-08-22T04:12:26.091Z,8.98
2018-08-22T04:14:54.290Z,8.10
2018-08-22T04:17:26.744Z,7.60
2018-08-22T04:19:54.931Z,7.50
2018-08-22T04:22:23.163Z,7.70
2018-08-22T04:24:51.383Z,8.65
2018-08-22T04:27:19.612Z,8.53
2018-08-22T04:29:47.808Z,8.05
2018-08-22T04:32:16.023Z,8.08
2018-08-22T04:34:44.236Z,7.60
2018-08-22T04:37:12.459Z,8.98
2018-08-22T04:39:40.663Z,10.25
2018-08-22T04:42:08.851Z,9.10
2018-08-22T04:44:37.091Z,8.83
2018-08-22T04:47:05.320Z,9.00
2018-08-22T04:49:33.544Z,7.80
2018-08-22T04:52:01.739Z,8.40
2018-08-22T04:54:29.947Z,9.63
2018-08-22T04:56:58.380Z,8.80
2018-08-22T04:59:26.635Z,8.00
2018-08-22T05:01:54.904Z,9.08
2018-08-22T05:04:23.450Z,8.55
2018-08-22T05:06:51.673Z,9.25
2018-08-22T05:09:19.876Z,9.00
2018-08-22T05:11:48.082Z,9.40
2018-08-22T05:14:16.310Z,8.78
2018-08-22T05:16:44.558Z,8.48
2018-08-22T05:19:12.794Z,8.50
2018-08-22T05:21:41.055Z,9.70
2018-08-22T05:24:09.279Z,8.58
2018-08-22T05:26:37.487Z,8.70
2018-08-22T05:29:05.703Z,8.98
2018-08-22T05:31:40.418Z,8.98
2018-08-22T05:34:08.708Z,8.20
2018-08-22T05:36:36.964Z,8.45
2018-08-22T05:39:08.559Z,8.93
2018-08-22T05:41:36.746Z,9.65
2018-08-22T05:44:04.992Z,8.68
2018-08-22T05:46:33.183Z,8.90
2018-08-22T05:49:01.378Z,8.70
2018-08-22T05:51:29.592Z,8.43
2018-08-22T05:53:57.795Z,7.80
2018-08-22T05:56:26.015Z,8.13
2018-08-22T05:58:54.223Z,8.03
2018-08-22T06:01:22.454Z,8.08
2018-08-22T06:03:50.845Z,8.00
2018-08-22T06:06:19.091Z,8.00
2018-08-22T06:08:47.299Z,8.45
2018-08-22T06:11:15.508Z,8.53
2018-08-22T06:13:43.732Z,8.30
2018-08-22T06:16:11.921Z,9.08
2018-08-22T06:18:40.112Z,8.85
2018-08-22T06:21:08.342Z,11.75
2018-08-22T06:23:37.558Z,8.33
2018-08-22T06:26:05.865Z,9.43
2018-08-22T06:28:34.081Z,9.18
2018-08-22T06:31:02.303Z,8.88
2018-08-22T06:33:30.496Z,10.63
2018-08-22T06:35:58.697Z,8.85
2018-08-22T06:38:26.898Z,8.73
2018-08-22T06:40:55.111Z,11.35
2018-08-22T06:43:23.281Z,9.38
2018-08-22T06:45:51.500Z,8.63
2018-08-22T06:48:19.686Z,9.18
2018-08-22T06:50:47.895Z,9.58
2018-08-22T06:53:16.089Z,8.93
2018-08-22T06:55:44.336Z,9.28
2018-08-22T06:58:13.058Z,8.85
2018-08-22T07:00:41.307Z,8.60
2018-08-22T07:03:09.495Z,8.05
2018-08-22T07:05:37.736Z,10.50
2018-08-22T07:08:06.031Z,9.28
2018-08-22T07:10:34.235Z,10.00
2018-08-22T07:13:02.464Z,10.25
2018-08-22T07:15:30.663Z,11.83
2018-08-22T07:17:58.899Z,11.22
2018-08-22T07:20:27.124Z,10.40
2018-08-22T07:22:55.359Z,9.55
2018-08-22T07:25:23.603Z,8.93
2018-08-22T07:27:51.814Z,11.30
2018-08-22T07:30:20.013Z,9.73
2018-08-22T07:32:48.243Z,9.40
2018-08-22T07:35:16.451Z,9.58
2018-08-22T07:37:44.640Z,10.78
2018-08-22T07:40:12.867Z,9.10
2018-08-22T07:42:41.111Z,12.10
2018-08-22T07:45:09.348Z,8.83
2018-08-22T07:47:37.535Z,9.88
2018-08-22T07:50:05.819Z,10.28
2018-08-22T07:52:34.026Z,9.98
2018-08-22T07:55:02.210Z,11.35
2018-08-22T07:57:30.435Z,12.15
2018-08-22T07:59:58.698Z,12.05
2018-08-22T08:02:26.918Z,10.43
2018-08-22T08:04:55.114Z,11.90
2018-08-22T08:07:23.347Z,11.80
2018-08-22T08:09:51.563Z,15.60
2018-08-22T08:12:23.547Z,15.10
2018-08-22T08:15:07.306Z,8.58
2018-08-22T08:17:35.575Z,13.08
2018-08-22T08:20:03.771Z,11.55
2018-08-22T08:22:31.987Z,11.15
2018-08-22T08:25:00.260Z,11.12
2018-08-22T08:27:28.459Z,9.40
2018-08-22T08:29:56.664Z,11.03
2018-08-22T08:32:24.896Z,10.78
2018-08-22T08:34:53.084Z,9.45
2018-08-22T08:37:21.259Z,9.73
2018-08-22T08:39:49.459Z,11.78
2018-08-22T08:42:17.658Z,10.23
2018-08-22T08:44:45.844Z,13.50
2018-08-22T08:47:14.044Z,10.75
2018-08-22T08:49:42.285Z,9.50
2018-08-22T08:52:10.456Z,12.58
2018-08-22T08:54:38.668Z,11.18
2018-08-22T08:57:06.874Z,13.25
2018-08-22T08:59:35.068Z,10.25
2018-08-22T09:02:03.282Z,9.58
2018-08-22T09:04:31.525Z,10.70
2018-08-22T09:06:59.736Z,9.88
2018-08-22T09:09:27.979Z,9.83
2018-08-22T09:11:59.277Z,9.53
2018-08-22T09:14:27.566Z,9.60
2018-08-22T09:16:56.331Z,11.22
2018-08-22T09:19:24.554Z,9.33
2018-08-22T09:21:52.761Z,9.88
2018-08-22T09:24:21.011Z,10.58
2018-08-22T09:26:49.219Z,10.08
2018-08-22T09:29:17.477Z,10.60
2018-08-22T09:31:45.731Z,10.32
2018-08-22T09:34:13.926Z,9.98
2018-08-22T09:36:42.134Z,9.00
2018-08-22T09:39:12.203Z,10.72
2018-08-22T09:41:40.453Z,10.13
2018-08-22T09:44:09.002Z,9.95
2018-08-22T09:46:38.070Z,13.22
2018-08-22T09:49:06.263Z,9.90
2018-08-22T09:51:34.470Z,8.95
2018-08-22T09:54:02.676Z,9.23
2018-08-22T09:56:30.895Z,7.95
2018-08-22T09:58:59.194Z,8.50
2018-08-22T10:01:44.732Z,9.33
2018-08-22T10:04:12.943Z,8.25
2018-08-22T10:06:43.313Z,7.75
2018-08-22T10:09:13.061Z,8.28
2018-08-22T10:11:41.290Z,8.78
2018-08-22T10:14:09.493Z,10.03
2018-08-22T10:16:37.708Z,7.20
2018-08-22T10:19:05.967Z,8.30
2018-08-22T10:21:34.211Z,9.38
2018-08-22T10:24:02.420Z,8.95
2018-08-22T10:26:30.665Z,7.45
2018-08-22T10:28:58.825Z,7.90
2018-08-22T10:31:27.151Z,9.40
2018-08-22T10:33:55.888Z,7.60
2018-08-22T10:36:24.248Z,9.85
2018-08-22T10:38:52.444Z,7.30
2018-08-22T10:41:20.826Z,8.90
2018-08-22T10:43:49.047Z,7.42
2018-08-22T10:46:17.247Z,7.33
2018-08-22T10:48:45.463Z,7.83
2018-08-22T10:51:13.639Z,7.92
2018-08-22T10:53:41.862Z,10.28
2018-08-22T10:56:10.043Z,6.80
2018-08-22T10:58:38.259Z,7.22
2018-08-22T11:01:06.476Z,6.78
2018-08-22T11:03:34.694Z,7.42
2018-08-22T11:06:02.949Z,8.45
2018-08-22T11:08:31.163Z,7.08
2018-08-22T11:11:06.167Z,7.62
2018-08-22T11:13:34.844Z,8.65
2018-08-22T11:16:03.053Z,6.80
2018-08-22T11:18:31.255Z,8.13
2018-08-22T11:21:10.922Z,7.35
2018-08-22T11:23:50.561Z,6.80
2018-08-22T11:26:30.167Z,7.60
2018-08-22T11:29:09.854Z,8.78
2018-08-22T11:31:49.548Z,8.13
2018-08-22T11:34:29.270Z,9.95
2018-08-22T11:37:02.081Z,8.65
2018-08-22T11:39:30.283Z,10.32
2018-08-22T11:41:58.532Z,7.65
2018-08-22T11:44:26.751Z,8.03
2018-08-22T11:46:54.961Z,8.10
2018-08-22T11:49:23.179Z,7.33
2018-08-22T11:51:51.415Z,7.58
2018-08-22T11:54:19.646Z,6.75
2018-08-22T11:56:47.852Z,6.47
2018-08-22T11:59:16.070Z,8.45
2018-08-22T12:01:44.439Z,8.18
2018-08-22T12:04:12.639Z,6.17
2018-08-22T12:06:40.883Z,5.70
2018-08-22T12:09:10.693Z,6.45
2018-08-22T12:11:38.970Z,5.97
2018-08-22T12:14:07.547Z,5.42
2018-08-22T12:16:35.777Z,6.40
2018-08-22T12:19:04.089Z,6.55
2018-08-22T12:21:32.328Z,6.28
2018-08-22T12:24:00.606Z,6.05
2018-08-22T12:26:28.819Z,6.80
2018-08-22T12:28:57.054Z,6.15
2018-08-22T12:31:25.285Z,6.45
2018-08-22T12:33:53.489Z,5.80
2018-08-22T12:36:21.731Z,6.37
2018-08-22T12:38:49.943Z,6.53
2018-08-22T12:41:18.146Z,5.65
2018-08-22T12:43:46.384Z,6.08
2018-08-22T12:46:14.581Z,5.80
2018-08-22T12:48:42.747Z,5.92
2018-08-22T12:51:10.948Z,5.78
2018-08-22T12:53:39.196Z,7.47
2018-08-22T12:56:07.416Z,5.47
2018-08-22T12:58:35.610Z,6.92
2018-08-22T13:01:04.079Z,6.33
2018-08-22T13:03:32.275Z,5.90
2018-08-22T13:06:00.499Z,5.78
2018-08-22T13:08:28.698Z,8.50
2018-08-22T13:10:57.256Z,5.65
2018-08-22T13:13:25.464Z,6.85
2018-08-22T13:15:53.689Z,6.37
2018-08-22T13:18:21.866Z,6.10
2018-08-22T13:20:50.061Z,6.10
2018-08-22T13:23:18.263Z,6.20
2018-08-22T13:25:46.463Z,7.00
2018-08-22T13:28:14.707Z,7.58
2018-08-22T13:30:42.950Z,6.53
2018-08-22T13:33:11.160Z,7.28
2018-08-22T13:35:39.387Z,6.20
2018-08-22T13:38:07.573Z,6.47
2018-08-22T13:40:35.755Z,6.40
2018-08-22T13:43:03.957Z,6.12
2018-08-22T13:45:32.155Z,6.80
2018-08-22T13:48:00.356Z,6.67
2018-08-22T13:50:28.572Z,6.15
2018-08-22T13:52:56.775Z,6.25
2018-08-22T13:55:24.966Z,7.90
2018-08-22T13:57:53.192Z,7.30
2018-08-22T14:00:21.367Z,6.53
2018-08-22T14:02:49.588Z,6.80
2018-08-22T14:05:17.815Z,6.42
2018-08-22T14:07:46.072Z,6.47
2018-08-22T14:10:14.271Z,7.00
2018-08-22T14:12:42.479Z,7.10
2018-08-22T14:15:10.717Z,6.20
2018-08-22T14:17:38.911Z,6.47
2018-08-22T14:20:07.113Z,6.45
2018-08-22T14:22:35.306Z,6.42
2018-08-22T14:25:03.539Z,6.53
2018-08-22T14:27:31.981Z,6.80
2018-08-22T14:30:00.205Z,6.72
2018-08-22T14:32:28.415Z,8.53
2018-08-22T14:34:56.691Z,7.30
2018-08-22T14:37:24.884Z,6.62
2018-08-22T14:39:53.147Z,6.42
2018-08-22T14:42:21.359Z,6.50
2018-08-22T14:44:49.563Z,6.03
2018-08-22T14:47:17.734Z,6.78
2018-08-22T14:49:45.950Z,10.80
2018-08-22T14:52:14.168Z,6.65
2018-08-22T14:54:42.360Z,8.00
2018-08-22T14:57:10.595Z,6.97
2018-08-22T14:59:38.790Z,8.63
2018-08-22T15:02:07.023Z,7.67
2018-08-22T15:04:35.235Z,7.80
2018-08-22T15:07:03.430Z,6.20
2018-08-22T15:09:31.638Z,6.08
2018-08-22T15:11:59.819Z,7.08
2018-08-22T15:14:28.016Z,6.67
2018-08-22T15:16:56.178Z,7.70
2018-08-22T15:19:24.462Z,6.40
2018-08-22T15:21:52.606Z,6.40
2018-08-22T15:24:20.817Z,6.62
2018-08-22T15:26:49.025Z,6.20
2018-08-22T15:29:17.272Z,6.22
2018-08-22T15:31:45.479Z,6.72
2018-08-22T15:34:13.673Z,8.33
2018-08-22T15:36:42.122Z,6.58
2018-08-22T15:39:11.187Z,8.15
2018-08-22T15:41:39.391Z,6.40
2018-08-22T15:44:07.705Z,7.67
2018-08-22T15:46:35.921Z,8.50
2018-08-22T15:49:04.130Z,6.33
2018-08-22T15:51:32.412Z,5.85
2018-08-22T15:54:10.196Z,6.15
2018-08-22T15:56:39.987Z,7.33
2018-08-22T15:59:08.614Z,6.35
2018-08-22T16:01:36.877Z,6.50
2018-08-22T16:04:05.076Z,8.70
2018-08-22T16:06:33.268Z,6.10
2018-08-22T16:09:01.494Z,6.60
2018-08-22T16:11:29.706Z,7.15
2018-08-22T16:13:57.907Z,6.75
2018-08-22T16:16:26.193Z,6.85
2018-08-22T16:18:54.376Z,7.95
2018-08-22T16:21:22.588Z,5.50
2018-08-22T16:23:50.831Z,6.05
2018-08-22T16:26:19.347Z,5.60
2018-08-22T16:28:55.232Z,5.75
2018-08-22T16:31:28.042Z,6.53
2018-08-22T16:33:56.287Z,5.58
2018-08-22T16:36:30.401Z,6.40
2018-08-22T16:38:59.314Z,5.95
2018-08-22T16:41:27.510Z,5.83
2018-08-22T16:43:55.718Z,5.65
2018-08-22T16:46:23.927Z,5.87
2018-08-22T16:48:53.558Z,6.85
2018-08-22T16:51:22.100Z,7.70
2018-08-22T16:53:59.681Z,5.42
2018-08-22T16:56:28.417Z,7.42
2018-08-22T16:59:02.139Z,6.12
2018-08-22T17:01:30.576Z,6.60
2018-08-22T17:03:58.766Z,6.15
2018-08-22T17:06:27.376Z,6.60
2018-08-22T17:08:55.860Z,5.95
2018-08-22T17:11:24.092Z,7.75
2018-08-22T17:13:53.169Z,6.75
2018-08-22T17:16:22.251Z,6.15
2018-08-22T17:18:50.476Z,5.45
2018-08-22T17:21:18.679Z,7.00
2018-08-22T17:23:47.172Z,5.85
2018-08-22T17:26:17.262Z,6.05
2018-08-22T17:28:48.578Z,5.78
2018-08-22T17:31:17.466Z,6.15
2018-08-22T17:33:49.942Z,5.78
2018-08-22T17:36:18.154Z,6.95
2018-08-22T17:38:48.648Z,5.75
2018-08-22T17:41:17.453Z,5.75
2018-08-22T17:44:01.383Z,6.10
2018-08-22T17:46:31.079Z,6.42
2018-08-22T17:48:59.339Z,6.42
2018-08-22T17:51:27.760Z,5.97
2018-08-22T17:53:55.979Z,6.80
2018-08-22T17:56:25.354Z,7.37
2018-08-22T17:58:54.460Z,7.50
2018-08-22T18:01:23.252Z,7.17
2018-08-22T18:03:52.960Z,6.85
2018-08-22T18:06:21.277Z,8.00
2018-08-22T18:08:49.448Z,10.78
2018-08-22T18:11:17.686Z,7.33
2018-08-22T18:13:46.050Z,13.68
2018-08-22T18:16:14.208Z,9.23
2018-08-22T18:18:42.435Z,14.25
2018-08-22T18:21:10.670Z,12.03
2018-08-22T18:23:43.166Z,12.37
2018-08-22T18:26:11.396Z,6.75
2018-08-22T18:28:39.548Z,6.65
2018-08-22T18:31:07.803Z,6.75
2018-08-22T18:33:46.052Z,8.05
2018-08-22T18:36:14.297Z,7.15
2018-08-22T18:38:54.139Z,7.17
2018-08-22T18:41:22.369Z,7.42
2018-08-22T18:43:50.559Z,7.20
2018-08-22T18:46:18.786Z,8.23
2018-08-22T18:48:47.036Z,14.43
2018-08-22T18:51:15.382Z,10.68
2018-08-22T18:53:43.611Z,7.67
2018-08-22T18:56:15.580Z,7.80
2018-08-22T18:58:44.042Z,7.47
2018-08-22T19:01:12.232Z,7.72
2018-08-22T19:03:40.423Z,9.73
2018-08-22T19:06:09.451Z,8.68
2018-08-22T19:08:38.662Z,9.00
2018-08-22T19:11:07.450Z,8.73
2018-08-22T19:13:35.567Z,8.93
2018-08-22T19:16:06.046Z,8.88
2018-08-22T19:18:34.244Z,8.93
2018-08-22T19:21:04.049Z,9.23
2018-08-22T19:23:32.437Z,9.18
2018-08-22T19:26:01.648Z,9.75
2018-08-22T19:28:29.873Z,8.80
2018-08-22T19:30:58.094Z,9.50
2018-08-22T19:33:27.308Z,8.70
2018-08-22T19:35:55.729Z,7.87
2018-08-22T19:38:25.204Z,7.37
2018-08-22T19:40:53.678Z,8.88
2018-08-22T19:43:21.920Z,7.87
2018-08-22T19:45:50.166Z,8.13
2018-08-22T19:48:18.368Z,7.75
2018-08-22T19:50:46.559Z,9.68
2018-08-22T19:53:14.795Z,7.97
2018-08-22T19:55:43.002Z,8.30
2018-08-22T19:58:11.226Z,10.15
2018-08-22T20:00:40.228Z,8.05
2018-08-22T20:03:08.934Z,8.78
2018-08-22T20:05:50.294Z,8.08
2018-08-22T20:08:21.056Z,8.23
2018-08-22T20:10:49.264Z,8.25
2018-08-22T20:13:17.525Z,7.95
2018-08-22T20:15:45.750Z,6.97
2018-08-22T20:18:13.973Z,7.28
2018-08-22T20:20:42.194Z,7.90
2018-08-22T20:23:10.433Z,8.18
2018-08-22T20:28:29.372Z,8.45
2018-08-22T20:31:01.779Z,9.13
2018-08-22T20:33:30.032Z,9.08
2018-08-22T20:35:58.280Z,10.13
2018-08-22T20:38:26.528Z,8.98
2018-08-22T20:40:59.016Z,10.05
2018-08-22T20:43:29.361Z,8.63
2018-08-22T20:45:57.629Z,8.93
2018-08-22T20:48:25.915Z,8.98
2018-08-22T20:50:54.206Z,8.93
2018-08-22T20:53:22.486Z,8.78
2018-08-22T20:55:50.741Z,9.45
2018-08-22T20:58:24.481Z,9.45
2018-08-22T21:00:52.793Z,11.60
2018-08-22T21:03:21.751Z,9.08
2018-08-22T21:05:50.043Z,9.90
2018-08-22T21:08:18.407Z,13.53
2018-08-22T21:10:46.612Z,9.10
2018-08-22T21:13:20.349Z,12.37
2018-08-22T21:15:48.723Z,11.08
2018-08-22T21:18:16.948Z,9.10
2018-08-22T21:20:45.182Z,8.70
2018-08-22T21:23:13.442Z,8.18
2018-08-22T21:25:44.018Z,8.10
2018-08-22T21:28:13.026Z,8.88
2018-08-22T21:30:45.520Z,9.93
2018-08-22T21:33:13.786Z,10.20
2018-08-22T21:35:44.820Z,10.15
2018-08-22T21:38:18.207Z,9.73
2018-08-22T21:40:47.132Z,9.78
2018-08-22T21:43:15.415Z,9.33
2018-08-22T21:45:43.652Z,9.15
2018-08-22T21:48:17.485Z,9.05
2018-08-22T21:50:46.075Z,9.23
2018-08-22T21:53:14.311Z,8.65
2018-08-22T21:55:45.198Z,9.40
2018-08-22T21:58:13.800Z,10.08
2018-08-22T22:00:42.022Z,9.23
2018-08-22T22:03:11.047Z,9.40
2018-08-22T22:05:49.878Z,9.83
2018-08-22T22:08:18.168Z,11.05
2018-08-22T22:10:46.463Z,9.75
2018-08-22T22:13:14.765Z,8.35
2018-08-22T22:15:44.286Z,9.53
2018-08-22T22:18:12.523Z,9.55
2018-08-22T22:20:41.089Z,7.95
2018-08-22T22:23:09.307Z,8.65
2018-08-22T22:25:37.559Z,8.75
2018-08-22T22:28:05.796Z,8.90
2018-08-22T22:30:34.019Z,8.33
2018-08-22T22:33:02.367Z,8.30
2018-08-22T22:35:36.728Z,9.58
2018-08-22T22:38:07.953Z,8.23
2018-08-22T22:40:36.470Z,8.53
2018-08-22T22:43:07.637Z,8.63
2018-08-22T22:45:36.116Z,8.38
2018-08-22T22:48:04.389Z,10.82
2018-08-22T22:50:33.285Z,8.53
2018-08-22T22:53:01.581Z,8.58
2018-08-22T22:55:29.818Z,9.25
2018-08-22T22:57:58.072Z,9.08
2018-08-22T23:00:27.724Z,9.20
2018-08-22T23:03:01.272Z,8.55
2018-08-22T23:05:30.820Z,9.85
2018-08-22T23:08:00.140Z,9.00
2018-08-22T23:10:28.449Z,9.15
2018-08-22T23:12:56.763Z,8.95
2018-08-22T23:15:26.596Z,8.35
2018-08-22T23:17:56.441Z,9.58
2018-08-22T23:20:30.985Z,9.03
2018-08-22T23:22:59.216Z,11.83
2018-08-22T23:25:27.926Z,14.23
2018-08-22T23:27:56.187Z,8.98
2018-08-22T23:30:29.749Z,9.08
2018-08-22T23:32:58.068Z,9.13
2018-08-22T23:35:28.477Z,10.55
2018-08-22T23:37:57.819Z,9.70
2018-08-22T23:40:27.252Z,8.80
2018-08-22T23:42:55.800Z,8.10
2018-08-22T23:45:24.103Z,9.08
2018-08-22T23:47:52.403Z,9.35
2018-08-22T23:50:20.808Z,9.15
2018-08-22T23:52:52.184Z,9.78
2018-08-22T23:55:21.607Z,9.78
2018-08-22T23:57:54.667Z,9.35
